Time;durP1;ratioP1;P1;durP2;ratioP2;P2;SDS_P1;SDS_P2;PMS_P1;PMS_P2;Temp;Humidity;BMP_temperature;BMP_pressure;BME280_temperature;BME280_humidity;BME280_pressure;Samples;Min_cycle;Max_cycle;Signal;HPM_P1;HPM_P2
2021/01/26 00:01:34;;;;;;;;;;;;;;;8.50;52.96;100161.00;4882747;29;19935;-75
2021/01/26 00:04:02;;;;;;;;;;;;;;;8.50;52.93;100176.81;4888698;29;19970;-75
2021/01/26 00:06:29;;;;;;;;;;;;;;;8.49;52.86;100173.31;4882161;29;20353;-75
2021/01/26 00:08:57;;;;;;;;;;;;;;;8.47;52.96;100177.78;4874898;29;19932;-76
2021/01/26 00:11:23;;;;;;;;;;;;;;;8.46;52.95;100168.16;4881079;29;20026;-75
2021/01/26 00:13:50;;;;;;;;;;;;;;;8.46;52.66;100176.91;4877869;29;19936;-75
2021/01/26 00:16:17;;;;;;;;;;;;;;;8.45;53.17;100174.28;4877168;29;19952;-74
2021/01/26 00:18:44;;;;;;;;;;;;;;;8.46;53.38;100182.16;4876873;29;19952;-74
2021/01/26 00:21:11;;;;;;;;;;;;;;;8.44;53.17;100186.59;4877640;29;19938;-74
2021/01/26 00:23:39;;;;;;;;;;;;;;;8.42;53.20;100180.50;4871112;29;19952;-75
2021/01/26 00:26:06;;;;;;;;;;;;;;;8.40;53.28;100190.22;4860710;29;19932;-75
2021/01/26 00:28:33;;;;;;;;;;;;;;;8.40;52.80;100192.00;4877426;29;19968;-75
2021/01/26 00:30:59;;;;;;;;;;;;;;;8.40;53.44;100194.63;4876891;29;19936;-75
2021/01/26 00:33:27;;;;;;;;;;;;;;;8.38;53.19;100196.44;4880248;29;20068;-75
2021/01/26 00:35:54;;;;;;;;;;;;;;;8.37;52.78;100200.84;4865804;29;19980;-75
2021/01/26 00:38:20;;;;;;;;;;;;;;;8.35;53.35;100202.66;4858778;29;19928;-75
2021/01/26 00:40:48;;;;;;;;;;;;;;;8.35;53.66;100213.19;4878581;29;20794;-75
2021/01/26 00:43:16;;;;;;;;;;;;;;;8.33;53.46;100209.75;4882126;29;19935;-75
2021/01/26 00:45:42;;;;;;;;;;;;;;;8.33;53.38;100214.16;4878083;29;19991;-75
2021/01/26 00:48:09;;;;;;;;;;;;;;;8.33;53.41;100219.44;4879885;29;19927;-75
2021/01/26 00:50:37;;;;;;;;;;;;;;;8.29;53.39;100221.28;4859439;29;20492;-75
2021/01/26 00:53:04;;;;;;;;;;;;;;;8.27;53.10;100218.69;4871531;29;19953;-75
2021/01/26 00:55:38;;;;;;;;;;;;;;;8.26;53.61;100216.06;4859238;29;19967;-75
2021/01/26 00:58:07;;;;;;;;;;;;;;;8.25;53.82;100225.75;4877970;29;19931;-75
2021/01/26 01:00:37;;;;;;;;;;;;;;;8.23;53.69;100222.28;4861577;29;19952;-75
2021/01/26 01:03:11;;;;;;;;;;;;;;;8.23;53.48;100218.78;4874490;29;19940;-76
2021/01/26 01:05:38;;;;;;;;;;;;;;;8.22;53.89;100227.59;4858551;29;19976;-75
2021/01/26 01:08:05;;;;;;;;;;;;;;;8.19;53.23;100222.41;4875993;29;20586;-75
2021/01/26 01:10:36;;;;;;;;;;;;;;;8.18;53.56;100232.09;4880083;29;20415;-75
2021/01/26 01:13:03;;;;;;;;;;;;;;;8.17;53.26;100226.84;4864035;29;20609;-75
2021/01/26 01:15:30;;;;;;;;;;;;;;;8.14;53.70;100225.16;4875060;29;19959;-75
2021/01/26 01:17:57;;;;;;;;;;;;;;;8.13;53.38;100232.22;4876805;29;19935;-75
2021/01/26 01:20:25;;;;;;;;;;;;;;;8.23;52.87;100230.19;4872423;29;19927;-74
2021/01/26 01:22:52;;;;;;;;;;;;;;;8.30;53.09;100226.50;4867687;29;19938;-75
2021/01/26 01:25:19;;;;;;;;;;;;;;;8.34;53.08;100235.19;4865278;29;19934;-75
2021/01/26 01:27:46;;;;;;;;;;;;;;;8.35;53.35;100233.41;4875392;29;19936;-75
2021/01/26 01:30:15;;;;;;;;;;;;;;;8.38;53.19;100235.97;4879079;29;20324;-75
2021/01/26 01:32:42;;;;;;;;;;;;;;;8.43;51.21;100227.03;4878863;29;19951;-75
2021/01/26 01:35:10;;;;;;;;;;;;;;;8.49;50.43;100233.94;4856732;29;20972;-75
2021/01/26 01:37:37;;;;;;;;;;;;;;;8.52;48.85;100239.13;4880955;29;19956;-75
2021/01/26 01:40:05;;;;;;;;;;;;;;;8.53;48.34;100242.66;4878405;29;20042;-75
2021/01/26 01:42:32;;;;;;;;;;;;;;;8.57;47.01;100241.66;4876993;29;19935;-75
2021/01/26 01:44:59;;;;;;;;;;;;;;;8.60;47.05;100245.09;4881436;29;19928;-75
2021/01/26 01:47:27;;;;;;;;;;;;;;;8.61;46.10;100240.66;4871250;29;19935;-75
2021/01/26 01:49:55;;;;;;;;;;;;;;;8.65;46.06;100242.31;4877724;29;19956;-75
2021/01/26 01:52:25;;;;;;;;;;;;;;;8.72;45.11;100246.50;4873867;29;19932;-76
2021/01/26 01:54:56;;;;;;;;;;;;;;;8.63;44.78;100252.03;4880528;29;19935;-75
2021/01/26 01:57:27;;;;;;;;;;;;;;;8.48;45.73;100255.94;4876565;29;20066;-76
2021/01/26 01:59:55;;;;;;;;;;;;;;;8.36;46.63;100258.88;4875803;29;19932;-76
2021/01/26 02:02:22;;;;;;;;;;;;;;;8.31;46.99;100257.22;4856034;29;19947;-75
2021/01/26 02:04:50;;;;;;;;;;;;;;;8.29;47.33;100266.09;4878533;29;20014;-76
2021/01/26 02:07:18;;;;;;;;;;;;;;;8.27;48.37;100265.25;4880492;29;20282;-75
2021/01/26 02:09:45;;;;;;;;;;;;;;;8.27;48.33;100268.75;4880362;29;19936;-75
2021/01/26 02:12:12;;;;;;;;;;;;;;;8.28;48.72;100269.63;4877490;29;20386;-75
2021/01/26 02:14:41;;;;;;;;;;;;;;;8.27;48.69;100271.41;4875393;29;19932;-75
2021/01/26 02:17:13;;;;;;;;;;;;;;;8.25;49.01;100265.28;4863062;29;19937;-75
2021/01/26 02:20:05;;;;;;;;;;;;;;;8.23;49.20;100280.25;4860719;29;19936;-76
2021/01/26 02:22:46;;;;;;;;;;;;;;;8.22;49.63;100289.09;4868470;29;19932;-76
2021/01/26 02:25:36;;;;;;;;;;;;;;;8.22;49.27;100281.19;4856571;29;19935;-75
2021/01/26 02:28:18;;;;;;;;;;;;;;;8.19;49.67;100291.78;4874275;29;19956;-75
2021/01/26 02:30:50;;;;;;;;;;;;;;;8.16;50.08;100296.28;4857216;29;19956;-75
2021/01/26 02:33:32;;;;;;;;;;;;;;;8.13;50.43;100294.59;4870656;29;19928;-75
2021/01/26 02:36:17;;;;;;;;;;;;;;;8.13;50.33;100298.06;4881612;29;19943;-75
2021/01/26 02:38:52;;;;;;;;;;;;;;;8.11;50.51;100299.88;4874724;29;19952;-75
2021/01/26 02:41:25;;;;;;;;;;;;;;;8.09;50.63;100300.81;4877671;29;19931;-75
2021/01/26 02:44:00;;;;;;;;;;;;;;;8.06;50.39;100312.28;4873260;29;19929;-75
2021/01/26 02:46:31;;;;;;;;;;;;;;;8.03;50.73;100303.63;4874090;29;19935;-75
2021/01/26 02:49:02;;;;;;;;;;;;;;;7.99;50.69;100313.34;4881944;29;19961;-75
2021/01/26 02:51:33;;;;;;;;;;;;;;;7.95;51.50;100316.97;4862245;29;19953;-76
2021/01/26 02:54:02;;;;;;;;;;;;;;;7.93;50.93;100319.63;4864298;29;19928;-76
2021/01/26 02:56:33;;;;;;;;;;;;;;;7.90;51.49;100321.47;4876069;29;19936;-75
2021/01/26 02:59:03;;;;;;;;;;;;;;;7.87;50.98;100318.91;4881683;29;20030;-75
2021/01/26 03:01:32;;;;;;;;;;;;;;;7.84;51.43;100324.22;4873068;29;19932;-75
2021/01/26 03:04:02;;;;;;;;;;;;;;;7.83;51.19;100336.56;4860743;29;19928;-75
2021/01/26 03:06:30;;;;;;;;;;;;;;;7.79;51.35;100338.38;4880129;29;19938;-75
2021/01/26 03:08:59;;;;;;;;;;;;;;;7.76;51.83;100335.81;4882804;29;19956;-75
2021/01/26 03:11:31;;;;;;;;;;;;;;;7.75;51.62;100341.97;4870872;29;19991;-75
2021/01/26 03:14:02;;;;;;;;;;;;;;;7.72;51.87;100336.78;4878794;29;19936;-75
2021/01/26 03:16:31;;;;;;;;;;;;;;;7.71;51.96;100335.06;4870347;29;19938;-75
2021/01/26 03:19:02;;;;;;;;;;;;;;;7.68;52.18;100332.47;4881440;29;19964;-75
2021/01/26 03:21:30;;;;;;;;;;;;;;;7.64;51.66;100336.97;4884202;29;19964;-75
2021/01/26 03:23:59;;;;;;;;;;;;;;;7.61;52.04;100337.00;4877490;29;19929;-75
2021/01/26 03:26:27;;;;;;;;;;;;;;;7.60;52.07;100339.69;4873559;29;19928;-75
2021/01/26 03:28:56;;;;;;;;;;;;;;;7.59;52.28;100344.09;4880271;29;19935;-76
2021/01/26 03:31:28;;;;;;;;;;;;;;;7.56;52.18;100338.00;4866254;29;19957;-75
2021/01/26 03:33:55;;;;;;;;;;;;;;;7.53;52.24;100343.34;4862410;29;19931;-75
2021/01/26 03:36:22;;;;;;;;;;;;;;;7.50;52.17;100346.03;4882041;29;19935;-75
2021/01/26 03:38:52;;;;;;;;;;;;;;;7.47;52.56;100346.97;4886419;29;19928;-75
2021/01/26 03:41:20;;;;;;;;;;;;;;;7.43;52.43;100346.19;4872596;29;19929;-75
2021/01/26 03:43:47;;;;;;;;;;;;;;;7.43;52.66;100358.47;4862822;29;19939;-75
2021/01/26 03:46:20;;;;;;;;;;;;;;;7.42;52.53;100360.22;4881804;29;19932;-75
2021/01/26 03:48:54;;;;;;;;;;;;;;;7.41;52.53;100360.28;4880292;29;19957;-75
2021/01/26 03:51:30;;;;;;;;;;;;;;;7.43;52.48;100364.59;4860154;29;19932;-75
2021/01/26 03:54:05;;;;;;;;;;;;;;;7.44;52.59;100373.34;4877200;29;19928;-75
2021/01/26 03:56:47;;;;;;;;;;;;;;;7.44;52.44;100362.84;4873211;29;19936;-75
2021/01/26 03:59:20;;;;;;;;;;;;;;;7.45;52.57;100370.69;4879501;29;19935;-75
2021/01/26 04:01:53;;;;;;;;;;;;;;;7.48;52.55;100364.50;4865512;29;20393;-75
2021/01/26 04:04:24;;;;;;;;;;;;;;;7.51;52.55;100368.81;4877668;29;19928;-75
2021/01/26 04:06:52;;;;;;;;;;;;;;;7.54;52.06;100371.38;4878254;29;19936;-75
2021/01/26 04:09:22;;;;;;;;;;;;;;;7.61;52.39;100363.34;4876249;29;20447;-75
2021/01/26 04:11:53;;;;;;;;;;;;;;;7.64;51.83;100373.81;4862732;29;19939;-75
2021/01/26 04:14:22;;;;;;;;;;;;;;;7.68;51.94;100376.38;4878136;29;19928;-76
2021/01/26 04:16:51;;;;;;;;;;;;;;;7.68;51.97;100374.59;4863865;29;20397;-75
2021/01/26 04:19:21;;;;;;;;;;;;;;;7.71;51.71;100374.56;4857217;29;19953;-75
2021/01/26 04:21:49;;;;;;;;;;;;;;;7.74;51.66;100384.16;4873400;29;19932;-75
2021/01/26 04:24:16;;;;;;;;;;;;;;;7.74;52.49;100378.88;4874784;29;19965;-75
2021/01/26 04:26:44;;;;;;;;;;;;;;;7.74;51.97;100384.16;4877980;29;19955;-75
2021/01/26 04:29:11;;;;;;;;;;;;;;;7.73;52.13;100380.63;4880876;29;19936;-75
2021/01/26 04:31:38;;;;;;;;;;;;;;;7.74;52.15;100386.78;4878069;29;19955;-75
2021/01/26 04:34:05;;;;;;;;;;;;;;;7.71;52.40;100385.09;4882971;29;19931;-75
2021/01/26 04:36:33;;;;;;;;;;;;;;;7.71;52.50;100381.56;4878206;29;19934;-75
2021/01/26 04:39:01;;;;;;;;;;;;;;;7.69;52.50;100380.75;4877206;29;19935;-76
2021/01/26 04:41:32;;;;;;;;;;;;;;;7.68;52.11;100382.50;4883349;29;19966;-75
2021/01/26 04:44:05;;;;;;;;;;;;;;;7.67;52.39;100382.53;4874839;29;19928;-75
2021/01/26 04:46:34;;;;;;;;;;;;;;;7.66;52.29;100386.94;4875926;29;19936;-75
2021/01/26 04:49:09;;;;;;;;;;;;;;;7.61;52.48;100392.28;4883117;29;19936;-76
2021/01/26 04:51:38;;;;;;;;;;;;;;;7.61;52.57;100387.03;4875534;29;19998;-75
2021/01/26 04:54:16;;;;;;;;;;;;;;;7.58;52.61;100379.19;4871342;29;19938;-75
2021/01/26 04:56:50;;;;;;;;;;;;;;;7.56;52.83;100382.75;4874110;29;19992;-75
2021/01/26 04:59:24;;;;;;;;;;;;;;;7.54;52.19;100380.16;4876084;29;20365;-76
2021/01/26 05:02:01;;;;;;;;;;;;;;;7.51;52.91;100379.34;4886114;29;19932;-75
2021/01/26 05:04:31;;;;;;;;;;;;;;;7.49;52.93;100387.28;4873300;29;19942;-75
2021/01/26 05:07:01;;;;;;;;;;;;;;;7.47;53.13;100386.44;4879879;29;19932;-75
2021/01/26 05:09:30;;;;;;;;;;;;;;;7.45;53.04;100383.84;4875841;29;19928;-75
2021/01/26 05:12:00;;;;;;;;;;;;;;;7.44;52.87;100386.50;4878363;29;19942;-75
2021/01/26 05:14:30;;;;;;;;;;;;;;;7.40;52.77;100385.69;4878041;29;19956;-75
2021/01/26 05:16:58;;;;;;;;;;;;;;;7.38;53.11;100395.41;4877498;29;19932;-75
2021/01/26 05:19:29;;;;;;;;;;;;;;;7.37;53.11;100388.41;4872462;29;20357;-75
2021/01/26 05:22:00;;;;;;;;;;;;;;;7.34;52.89;100387.59;4871214;29;20082;-75
2021/01/26 05:24:29;;;;;;;;;;;;;;;7.31;52.98;100393.78;4876049;29;20341;-74
2021/01/26 05:26:57;;;;;;;;;;;;;;;7.29;52.63;100387.69;4879833;29;19927;-74
2021/01/26 05:29:24;;;;;;;;;;;;;;;7.26;53.06;100391.25;4877974;29;19932;-74
2021/01/26 05:31:56;;;;;;;;;;;;;;;7.24;52.86;100394.81;4875272;29;19935;-74
2021/01/26 05:34:24;;;;;;;;;;;;;;;7.22;52.98;100386.97;4870780;29;19996;-74
2021/01/26 05:36:52;;;;;;;;;;;;;;;7.21;53.26;100389.59;4874196;29;19929;-74
2021/01/26 05:39:21;;;;;;;;;;;;;;;7.18;52.82;100392.28;4883284;29;19927;-74
2021/01/26 05:41:48;;;;;;;;;;;;;;;7.17;53.27;100394.06;4872209;29;19932;-74
2021/01/26 05:44:19;;;;;;;;;;;;;;;7.13;53.29;100385.34;4876896;29;19932;-74
2021/01/26 05:46:47;;;;;;;;;;;;;;;7.13;53.23;100390.63;4865777;29;19967;-74
2021/01/26 05:49:30;;;;;;;;;;;;;;;7.14;53.33;100389.72;4877251;29;20849;-74
2021/01/26 05:51:57;;;;;;;;;;;;;;;7.15;53.26;100391.44;4875839;29;19936;-74
2021/01/26 05:54:24;;;;;;;;;;;;;;;7.15;53.02;100388.81;4878070;29;19932;-74
2021/01/26 05:56:52;;;;;;;;;;;;;;;7.16;53.27;100397.59;4875913;29;19970;-74
2021/01/26 05:59:25;;;;;;;;;;;;;;;7.18;52.92;100400.19;4865620;29;19928;-75
2021/01/26 06:01:52;;;;;;;;;;;;;;;7.22;53.05;100401.84;4879987;29;19963;-75
2021/01/26 06:04:26;;;;;;;;;;;;;;;7.23;53.27;100398.34;4876230;29;19999;-74
2021/01/26 06:06:55;;;;;;;;;;;;;;;7.27;53.10;100400.84;4877644;29;19938;-74
2021/01/26 06:09:33;;;;;;;;;;;;;;;7.30;52.91;100399.94;4880651;29;19932;-74
2021/01/26 06:12:14;;;;;;;;;;;;;;;7.32;52.81;100408.69;4881721;29;19932;-75
2021/01/26 06:14:43;;;;;;;;;;;;;;;7.38;52.63;100412.94;4858269;29;20003;-76
2021/01/26 06:17:11;;;;;;;;;;;;;;;7.43;52.71;100414.63;4872777;29;20981;-74
2021/01/26 06:19:38;;;;;;;;;;;;;;;7.47;52.59;100415.41;4863452;29;19940;-74
2021/01/26 06:22:05;;;;;;;;;;;;;;;7.49;52.30;100413.63;4873807;29;19939;-75
2021/01/26 06:24:33;;;;;;;;;;;;;;;7.50;52.24;100415.34;4870902;29;19943;-75
2021/01/26 06:27:11;;;;;;;;;;;;;;;7.51;52.71;100413.56;4870425;29;19983;-76
2021/01/26 06:29:39;;;;;;;;;;;;;;;7.53;52.70;100415.28;4869557;29;19954;-76
2021/01/26 06:32:09;;;;;;;;;;;;;;;7.55;52.21;100416.13;4845287;29;19932;-79
2021/01/26 06:34:56;;;;;;;;;;;;;;;7.85;54.11;100420.78;4864763;29;19957;-75
2021/01/26 06:38:27;;;;;;;;;;;;;;;7.95;58.10;100415.28;4868005;29;20066;-77
2021/01/26 06:41:24;;;;;;;;;;;;;;;8.17;56.52;100411.28;4972972;23;19975;-76
2021/01/26 06:43:59;;;;;;;;;;;;;;;8.23;54.73;100425.19;4824943;29;19941;-77
2021/01/26 06:53:16;;;;;;;;;;;;;;;8.38;49.06;100425.75;4990673;23;19945;-78
2021/01/26 06:56:01;;;;;;;;;;;;;;;8.49;47.78;100429.03;4829483;29;20012;-74
2021/01/26 07:05:27;;;;;;;;;;;;;;;8.69;48.20;100438.22;4839272;29;19937;-77
2021/01/26 07:08:13;;;;;;;;;;;;;;;8.45;49.30;100435.25;4831723;29;20784;-80
2021/01/26 07:10:56;;;;;;;;;;;;;;;8.36;50.10;100432.84;4830600;29;19935;-81
2021/01/26 07:13:26;;;;;;;;;;;;;;;8.31;50.76;100436.44;4847884;29;19932;-79
2021/01/26 07:16:08;;;;;;;;;;;;;;;8.49;50.13;100438.72;4846587;29;19943;-77
2021/01/26 07:18:50;;;;;;;;;;;;;;;8.50;48.68;100438.69;4862579;29;20066;-77
2021/01/26 07:21:25;;;;;;;;;;;;;;;8.65;47.28;100442.72;4838857;29;20484;-79
2021/01/26 07:28:13;;;;;;;;;;;;;;;8.62;45.36;100448.91;4834608;29;20082;-79
2021/01/26 07:30:45;;;;;;;;;;;;;;;8.42;46.04;100449.38;4846666;29;19932;-76
2021/01/26 07:33:15;;;;;;;;;;;;;;;8.30;47.50;100445.25;4849434;29;19936;-79
2021/01/26 18:13:34;;;;;;;;;;;;;;;7.79;49.85;100767.63;5789946;23;20594;31
2021/01/26 18:16:02;;;;;;;;;;;;;;;7.77;49.67;100764.19;4842038;29;19936;-75
2021/01/26 18:18:29;;;;;;;;;;;;;;;7.76;49.75;100777.34;4861516;29;19936;-75
2021/01/26 18:20:56;;;;;;;;;;;;;;;7.74;50.13;100774.72;4861193;29;19976;-75
2021/01/26 18:23:23;;;;;;;;;;;;;;;7.72;50.31;100776.53;4862027;29;19936;-78
2021/01/26 18:29:02;;;;;;;;;;;;;;;7.71;50.48;100773.91;4862643;29;19936;-78
2021/01/26 18:31:29;;;;;;;;;;;;;;;7.70;50.24;100782.72;4858506;29;19944;-77
2021/01/26 18:33:57;;;;;;;;;;;;;;;7.69;50.20;100771.28;4862254;29;20860;-75
2021/01/26 18:36:33;;;;;;;;;;;;;;;7.71;50.69;100776.53;4857903;29;19935;-75
2021/01/26 18:39:04;;;;;;;;;;;;;;;7.71;50.39;100774.78;4847929;29;19942;-76
2021/01/26 18:41:32;;;;;;;;;;;;;;;7.75;50.66;100776.47;4850977;29;19995;-75
2021/01/26 18:44:04;;;;;;;;;;;;;;;7.76;50.21;100774.69;4864560;29;19974;-74
2021/01/26 18:46:32;;;;;;;;;;;;;;;7.78;50.57;100775.56;4861303;29;19932;-76
2021/01/26 18:49:06;;;;;;;;;;;;;;;7.82;50.20;100779.88;4884019;29;20397;-75
2021/01/26 18:51:35;;;;;;;;;;;;;;;7.84;50.38;100779.84;4878524;29;19944;-75
2021/01/26 18:54:02;;;;;;;;;;;;;;;7.86;50.64;100778.09;4879252;29;19947;-77
2021/01/26 18:56:29;;;;;;;;;;;;;;;7.86;50.75;100773.66;4871720;29;20635;-76
2021/01/26 18:58:56;;;;;;;;;;;;;;;7.87;50.22;100769.28;4872375;29;19959;-77
2021/01/26 19:01:26;;;;;;;;;;;;;;;7.90;50.42;100774.50;4873002;29;20003;-76
2021/01/26 19:04:06;;;;;;;;;;;;;;;7.90;50.57;100772.72;4872783;29;19931;-76
2021/01/26 19:06:38;;;;;;;;;;;;;;;7.92;50.59;100780.63;4880600;29;19995;-75
2021/01/26 19:09:10;;;;;;;;;;;;;;;7.90;50.74;100777.13;4868363;29;19984;-75
2021/01/26 19:11:40;;;;;;;;;;;;;;;7.90;50.51;100783.25;4876276;29;19934;-76
2021/01/26 19:14:09;;;;;;;;;;;;;;;7.89;50.90;100781.56;4875592;29;19932;-75
2021/01/26 19:16:36;;;;;;;;;;;;;;;7.88;50.88;100774.53;4880555;29;19976;-75
2021/01/26 19:19:05;;;;;;;;;;;;;;;7.89;50.92;100778.03;4879363;29;19935;-76
2021/01/26 19:21:32;;;;;;;;;;;;;;;7.87;50.86;100775.41;4869148;29;19944;-75
2021/01/26 19:24:01;;;;;;;;;;;;;;;7.88;50.81;100776.28;4881361;29;19951;-75
2021/01/26 19:26:28;;;;;;;;;;;;;;;7.85;51.17;100771.94;4875686;29;19936;-75
2021/01/26 19:28:57;;;;;;;;;;;;;;;7.85;50.93;100773.69;4870537;29;19928;-75
2021/01/26 19:31:35;;;;;;;;;;;;;;;7.83;51.00;100781.63;4876533;29;19976;-76
2021/01/26 19:34:08;;;;;;;;;;;;;;;7.79;51.15;100783.44;4875782;29;19967;-76
2021/01/26 19:36:35;;;;;;;;;;;;;;;7.79;51.21;100778.16;4862360;29;19935;-75
2021/01/26 19:39:02;;;;;;;;;;;;;;;7.78;51.15;100781.69;4879682;29;19935;-76
2021/01/26 19:41:30;;;;;;;;;;;;;;;7.77;51.45;100797.53;4876304;29;19932;-77
2021/01/26 19:43:58;;;;;;;;;;;;;;;7.74;51.08;100782.63;4879845;29;19934;-76
2021/01/26 19:59:48;;;;;;;;;;;;;;;7.65;51.60;100786.25;4848290;29;19923;-76
2021/01/26 20:02:15;;;;;;;;;;;;;;;7.62;51.53;100788.94;4846615;29;20509;-75
2021/01/26 20:04:43;;;;;;;;;;;;;;;7.59;51.17;100793.38;4849200;29;19939;-77
2021/01/26 20:07:10;;;;;;;;;;;;;;;7.54;51.80;100784.69;4837023;29;19929;-78
2021/01/26 20:09:37;;;;;;;;;;;;;;;7.53;51.65;100796.13;4842486;29;19962;-77
2021/01/26 20:12:04;;;;;;;;;;;;;;;7.50;51.78;100796.16;4836385;29;19939;-78
2021/01/26 20:14:31;;;;;;;;;;;;;;;7.46;51.50;100798.84;4845031;29;20449;-78
2021/01/26 20:17:00;;;;;;;;;;;;;;;7.43;51.72;100803.25;4853546;29;20296;-78
2021/01/26 20:19:28;;;;;;;;;;;;;;;7.39;51.79;100799.78;4830108;29;20040;-77
2021/01/26 20:21:56;;;;;;;;;;;;;;;7.38;51.69;100797.19;4832087;29;19928;-77
2021/01/26 20:24:23;;;;;;;;;;;;;;;7.37;51.67;100798.97;4832160;29;19932;-77
2021/01/26 20:26:51;;;;;;;;;;;;;;;7.36;51.59;100798.97;4835195;29;19936;-77
2021/01/26 20:29:18;;;;;;;;;;;;;;;7.36;51.67;100799.84;4842296;29;19933;-77
2021/01/26 20:31:45;;;;;;;;;;;;;;;7.34;51.41;100795.50;4840996;29;19929;-77
2021/01/26 20:34:12;;;;;;;;;;;;;;;7.37;51.52;100790.19;4839075;29;19962;-77
2021/01/26 20:36:42;;;;;;;;;;;;;;;7.39;51.29;100802.44;4843979;29;19932;-76
2021/01/26 20:39:11;;;;;;;;;;;;;;;7.40;51.55;100798.06;4838668;29;20026;-77
2021/01/26 20:41:39;;;;;;;;;;;;;;;7.44;51.19;100805.00;4840900;29;19939;-77
2021/01/26 20:44:07;;;;;;;;;;;;;;;7.48;51.31;100801.44;4844599;29;19963;-77
2021/01/26 20:46:35;;;;;;;;;;;;;;;7.49;51.46;100803.19;4826528;29;19965;-77
2021/01/26 20:49:03;;;;;;;;;;;;;;;7.50;51.47;100797.03;4845945;29;19943;-77
2021/01/26 20:51:39;;;;;;;;;;;;;;;7.54;51.29;100806.63;4838117;29;19932;-77
2021/01/26 20:54:07;;;;;;;;;;;;;;;7.53;51.27;100802.25;4832938;29;19929;-77
2021/01/26 20:56:35;;;;;;;;;;;;;;;7.55;51.03;100813.66;4834371;29;19932;-76
2021/01/26 20:59:02;;;;;;;;;;;;;;;7.56;51.00;100814.50;4841835;29;19942;-76
2021/01/26 21:01:29;;;;;;;;;;;;;;;7.56;51.31;100806.59;4842664;29;19936;-77
2021/01/26 21:03:56;;;;;;;;;;;;;;;7.54;51.46;100813.63;4840736;29;19932;-76
2021/01/26 21:06:23;;;;;;;;;;;;;;;7.52;51.33;100808.41;4818867;29;19932;-76
2021/01/26 21:08:51;;;;;;;;;;;;;;;7.48;51.27;100812.84;4830342;29;20867;-77
2021/01/26 21:11:18;;;;;;;;;;;;;;;7.47;51.18;100820.75;4841941;29;19933;-75
2021/01/26 21:13:47;;;;;;;;;;;;;;;7.46;51.17;100821.66;4843572;29;19938;-76
2021/01/26 21:16:14;;;;;;;;;;;;;;;7.44;51.26;100828.69;4845401;29;19943;-76
2021/01/26 21:18:43;;;;;;;;;;;;;;;7.44;51.35;100826.94;4835367;29;19936;-79
2021/01/26 21:21:14;;;;;;;;;;;;;;;7.58;52.91;100828.53;4833028;29;19968;-75
2021/01/26 21:23:40;;;;;;;;;;;;;;;7.59;53.30;100832.88;4837581;29;19933;-77
2021/01/26 21:26:07;;;;;;;;;;;;;;;7.55;53.00;100826.81;4833579;29;19937;-75
2021/01/26 21:28:34;;;;;;;;;;;;;;;7.51;52.98;100827.72;4841965;29;19928;-75
2021/01/26 21:31:04;;;;;;;;;;;;;;;7.50;52.56;100826.00;4841320;29;19964;-76
2021/01/26 21:33:31;;;;;;;;;;;;;;;7.48;52.39;100828.66;4841032;29;20077;-75
2021/01/26 21:35:59;;;;;;;;;;;;;;;7.48;52.64;100820.75;4836637;29;19940;-75
2021/01/26 21:38:27;;;;;;;;;;;;;;;7.47;52.63;100826.91;4839496;29;19928;-75
2021/01/26 21:40:55;;;;;;;;;;;;;;;7.48;52.43;100825.13;4845737;29;20003;-75
2021/01/26 21:43:22;;;;;;;;;;;;;;;7.45;52.12;100828.69;4828537;29;19939;-75
2021/01/26 21:45:49;;;;;;;;;;;;;;;7.44;52.65;100828.69;4840775;29;19932;-75
2021/01/26 21:48:17;;;;;;;;;;;;;;;7.43;52.48;100821.69;4841687;29;19961;-75
2021/01/26 21:50:44;;;;;;;;;;;;;;;7.41;52.50;100824.34;4839758;29;19973;-75
2021/01/26 21:53:12;;;;;;;;;;;;;;;7.38;52.38;100827.03;4841850;29;19995;-75
2021/01/26 21:55:39;;;;;;;;;;;;;;;7.38;52.18;100831.41;4843818;29;20749;-75
2021/01/26 21:58:06;;;;;;;;;;;;;;;7.38;52.03;100831.41;4840330;29;19943;-75
2021/01/26 22:00:33;;;;;;;;;;;;;;;7.32;52.46;100825.31;4842203;29;19958;-76
2021/01/26 22:03:00;;;;;;;;;;;;;;;7.29;52.08;100829.78;4844756;29;19928;-75
2021/01/26 22:05:32;;;;;;;;;;;;;;;7.27;52.44;100827.13;4826326;29;19935;-75
2021/01/26 22:08:00;;;;;;;;;;;;;;;7.24;52.43;100831.59;4842743;29;20902;-78
2021/01/26 22:10:28;;;;;;;;;;;;;;;7.22;52.35;100830.72;4825610;29;19935;-78
2021/01/26 22:12:55;;;;;;;;;;;;;;;7.15;52.02;100828.16;4844764;29;19956;-75
2021/01/26 22:15:23;;;;;;;;;;;;;;;7.14;52.33;100836.06;4844666;29;19939;-75
2021/01/26 22:17:51;;;;;;;;;;;;;;;7.12;52.14;100832.63;4841060;29;19938;-75
2021/01/26 22:20:19;;;;;;;;;;;;;;;7.08;52.45;100828.28;4841048;29;20371;-75
2021/01/26 22:22:48;;;;;;;;;;;;;;;7.04;52.53;100821.28;4846357;29;19935;-75
2021/01/26 22:25:16;;;;;;;;;;;;;;;7.01;52.42;100821.34;4841658;29;19981;-76
2021/01/26 22:27:43;;;;;;;;;;;;;;;6.99;52.50;100829.25;4842170;29;19961;-76
2021/01/26 22:30:10;;;;;;;;;;;;;;;6.96;52.53;100834.53;4841894;29;19932;-75
2021/01/26 22:32:37;;;;;;;;;;;;;;;6.95;52.55;100832.81;4840576;29;19937;-75
2021/01/26 22:35:05;;;;;;;;;;;;;;;6.95;52.45;100824.91;4824503;29;20057;-75
2021/01/26 22:37:32;;;;;;;;;;;;;;;6.96;52.37;100826.63;4827173;29;19929;-76
2021/01/26 22:40:00;;;;;;;;;;;;;;;6.96;52.45;100824.88;4845039;29;19935;-75
2021/01/26 22:42:30;;;;;;;;;;;;;;;6.98;51.94;100819.59;4836207;29;19961;-75
2021/01/26 22:44:57;;;;;;;;;;;;;;;6.99;52.06;100818.72;4840385;29;19928;-76
2021/01/26 22:47:25;;;;;;;;;;;;;;;7.02;52.09;100818.69;4829613;29;19982;-75
2021/01/26 22:49:53;;;;;;;;;;;;;;;7.02;52.42;100818.69;4842502;29;20000;-75
2021/01/26 22:52:20;;;;;;;;;;;;;;;7.04;52.24;100821.28;4842883;29;19929;-76
2021/01/26 22:54:47;;;;;;;;;;;;;;;7.06;52.13;100822.16;4843342;29;19940;-76
2021/01/26 22:57:15;;;;;;;;;;;;;;;7.04;51.83;100811.66;4837158;29;19936;-76
2021/01/26 22:59:41;;;;;;;;;;;;;;;7.04;52.07;100811.66;4840854;29;20389;-77
2021/01/26 23:02:08;;;;;;;;;;;;;;;7.06;51.93;100817.75;4820134;29;19933;-76
2021/01/26 23:04:36;;;;;;;;;;;;;;;7.04;51.98;100816.03;4840936;29;19932;-76
2021/01/26 23:07:03;;;;;;;;;;;;;;;7.03;51.98;100817.78;4841144;29;19956;-77
2021/01/26 23:09:30;;;;;;;;;;;;;;;7.01;51.76;100814.28;4836994;29;19936;-77
2021/01/26 23:11:57;;;;;;;;;;;;;;;7.01;51.63;100826.59;4838739;29;19944;-76
2021/01/26 23:14:28;;;;;;;;;;;;;;;6.95;52.37;100822.28;4809104;29;19940;-76
2021/01/26 23:16:55;;;;;;;;;;;;;;;6.97;51.91;100818.75;4824794;29;19935;-75
2021/01/26 23:19:22;;;;;;;;;;;;;;;6.95;52.13;100817.88;4827599;29;19972;-75
2021/01/26 23:21:49;;;;;;;;;;;;;;;6.93;51.76;100814.41;4825405;29;19971;-75
2021/01/26 23:24:16;;;;;;;;;;;;;;;6.91;51.94;100816.19;4826043;29;19943;-76
2021/01/26 23:26:44;;;;;;;;;;;;;;;6.89;51.89;100811.81;4833748;29;19932;-76
2021/01/26 23:29:12;;;;;;;;;;;;;;;6.88;52.04;100810.97;4827664;29;19929;-75
2021/01/26 23:31:39;;;;;;;;;;;;;;;6.85;51.80;100810.13;4827588;29;19933;-76
2021/01/26 23:34:06;;;;;;;;;;;;;;;6.84;51.69;100819.75;4814496;29;19932;-76
2021/01/26 23:36:33;;;;;;;;;;;;;;;6.80;51.90;100818.94;4830055;29;20872;-76
2021/01/26 23:39:00;;;;;;;;;;;;;;;6.79;51.99;100814.56;4829547;29;19928;-76
2021/01/26 23:41:27;;;;;;;;;;;;;;;6.77;51.94;100812.81;4824913;29;19939;-75
2021/01/26 23:43:55;;;;;;;;;;;;;;;6.76;51.95;100811.97;4827116;29;20039;-76
2021/01/26 23:46:22;;;;;;;;;;;;;;;6.75;51.80;100809.31;4827650;29;19962;-76
2021/01/26 23:48:50;;;;;;;;;;;;;;;6.74;51.93;100819.00;4828297;29;19932;-75
2021/01/26 23:51:18;;;;;;;;;;;;;;;6.74;51.83;100819.00;4825883;29;19967;-75
2021/01/26 23:53:45;;;;;;;;;;;;;;;6.77;51.95;100818.94;4829354;29;20305;-76
2021/01/26 23:56:12;;;;;;;;;;;;;;;6.77;51.65;100824.19;4831860;29;20347;-76
2021/01/26 23:58:43;;;;;;;;;;;;;;;6.80;51.50;100818.94;4839684;29;19936;-76
